Time;durP1;ratioP1;P1;durP2;ratioP2;P2;SDS_P1;SDS_P2;PMS_P1;PMS_P2;Temp;Humidity;BMP_temperature;BMP_pressure;BME280_temperature;BME280_humidity;BME280_pressure;Samples;Min_cycle;Max_cycle;Signal;HPM_P1;HPM_P2
2021/10/29 00:01:10;;;;;;;11.17;5.37;;;;;;;0.94;77.66;96606.24;1765319;80;21125;-69
2021/10/29 00:03:37;;;;;;;6.90;4.30;;;;;;;1.04;77.95;96604.42;1771732;80;21507;-68
2021/10/29 00:06:04;;;;;;;8.77;4.83;;;;;;;1.08;77.89;96597.61;1774304;80;21045;-67
2021/10/29 00:08:31;;;;;;;7.87;4.80;;;;;;;1.12;78.31;96599.48;1778740;81;21070;-68
2021/10/29 00:10:58;;;;;;;11.53;5.27;;;;;;;1.04;77.43;96603.55;1769818;80;21008;-67
2021/10/29 00:13:25;;;;;;;8.03;4.20;;;;;;;0.95;78.27;96601.92;1770469;80;21065;-68
2021/10/29 00:15:52;;;;;;;9.67;5.87;;;;;;;0.94;78.10;96596.27;1770748;80;21465;-68
2021/10/29 00:18:18;;;;;;;9.40;5.70;;;;;;;0.95;78.12;96600.63;1767282;80;21034;-67
2021/10/29 00:20:45;;;;;;;11.77;6.87;;;;;;;0.93;78.08;96607.47;1775435;79;21638;-67
2021/10/29 00:23:11;;;;;;;10.03;5.90;;;;;;;0.86;77.59;96598.18;1773604;81;22465;-67
2021/10/29 00:25:38;;;;;;;8.67;4.93;;;;;;;0.88;77.94;96602.11;1769969;80;21031;-68
2021/10/29 00:28:05;;;;;;;8.30;4.83;;;;;;;0.91;77.95;96595.75;1770247;80;21642;-68
2021/10/29 00:30:32;;;;;;;6.97;4.30;;;;;;;0.99;77.73;96594.29;1775179;81;21097;-69
2021/10/29 00:32:59;;;;;;;9.67;4.63;;;;;;;1.02;77.36;96593.52;1769144;80;21031;-69
2021/10/29 00:35:25;;;;;;;7.47;4.67;;;;;;;0.94;76.72;96589.35;1765291;80;21003;-67
2021/10/29 00:37:52;;;;;;;6.37;3.73;;;;;;;0.81;77.07;96587.17;1764202;80;21546;-68
2021/10/29 00:40:19;;;;;;;7.90;4.03;;;;;;;0.63;77.85;96592.19;1764441;80;21559;-69
2021/10/29 00:42:46;;;;;;;9.00;4.87;;;;;;;0.65;77.76;96585.72;1769342;80;21019;-68
2021/10/29 00:45:12;;;;;;;9.70;4.50;;;;;;;0.78;78.37;96595.73;1763721;80;20998;-68
2021/10/29 00:47:39;;;;;;;6.60;3.80;;;;;;;0.87;78.33;96587.37;1770748;80;21023;-68
2021/10/29 00:50:07;;;;;;;7.60;4.40;;;;;;;0.93;78.12;96581.48;1766933;80;21736;-68
2021/10/29 00:52:35;;;;;;;7.17;4.17;;;;;;;0.94;77.98;96581.98;1770545;81;21096;-67
2021/10/29 00:55:03;;;;;;;7.00;3.93;;;;;;;0.86;77.69;96580.00;1739338;81;21051;-68
2021/10/29 00:57:30;;;;;;;8.07;4.20;;;;;;;0.88;78.18;96576.13;1778191;80;20985;-68
2021/10/29 00:59:58;;;;;;;7.40;4.00;;;;;;;0.95;78.24;96578.53;1774602;79;21038;-68
2021/10/29 01:02:26;;;;;;;6.13;4.10;;;;;;;0.96;78.09;96572.49;1770339;80;21014;-68
2021/10/29 01:04:53;;;;;;;9.63;5.47;;;;;;;0.84;77.86;96576.45;1776408;81;21062;-68
2021/10/29 01:07:21;;;;;;;10.47;5.57;;;;;;;0.79;78.26;96572.81;1772921;80;21041;-69
2021/10/29 01:09:47;;;;;;;11.47;7.03;;;;;;;0.64;78.47;96576.17;1764850;80;21572;-68
2021/10/29 01:12:14;;;;;;;7.47;4.07;;;;;;;0.58;78.77;96576.85;1779490;81;20999;-68
2021/10/29 01:14:42;;;;;;;7.80;3.63;;;;;;;0.63;78.46;96581.80;1771611;80;21054;-68
2021/10/29 01:17:08;;;;;;;6.77;4.10;;;;;;;0.59;77.85;96578.61;1767880;80;21058;-68
2021/10/29 01:19:39;;;;;;;7.23;3.20;;;;;;;0.52;78.24;96582.23;1771543;80;21014;-68
2021/10/29 01:22:05;;;;;;;5.63;3.77;;;;;;;0.46;78.14;96579.00;1774291;80;21489;-69
2021/10/29 01:24:32;;;;;;;6.17;4.00;;;;;;;0.48;78.08;96573.84;1769319;80;21043;-68
2021/10/29 01:26:58;;;;;;;7.17;3.30;;;;;;;0.58;78.70;96569.45;1775994;81;21026;-69
2021/10/29 01:29:25;;;;;;;10.83;4.97;;;;;;;0.53;78.22;96569.70;1765149;80;21044;-68
2021/10/29 01:31:52;;;;;;;12.87;5.50;;;;;;;0.39;78.91;96564.03;1765553;80;21044;-66
2021/10/29 01:34:18;;;;;;;12.23;3.57;;;;;;;0.38;78.44;96559.26;1764060;80;21010;-68
2021/10/29 01:36:45;;;;;;;7.10;4.20;;;;;;;0.39;78.51;96557.12;1765295;80;21554;-68
2021/10/29 01:39:16;;;;;;;11.43;4.73;;;;;;;0.50;78.84;96564.41;1775985;81;20983;-68
2021/10/29 01:41:44;;;;;;;8.63;4.33;;;;;;;0.52;79.31;96560.16;1764121;80;21053;-68
2021/10/29 01:44:12;;;;;;;8.80;4.80;;;;;;;0.60;79.24;96555.69;1769034;80;21050;-68
2021/10/29 01:46:40;;;;;;;6.37;3.30;;;;;;;0.64;78.94;96548.48;1765679;80;21026;-68
2021/10/29 01:49:08;;;;;;;8.27;4.13;;;;;;;0.62;78.60;96550.56;1771442;80;21611;-68
2021/10/29 01:51:35;;;;;;;9.07;4.53;;;;;;;0.42;79.60;96552.03;1777734;80;21037;-68
2021/10/29 01:54:02;;;;;;;10.63;5.07;;;;;;;0.30;79.42;96549.41;1778991;81;21501;-69
2021/10/29 01:56:29;;;;;;;10.23;5.33;;;;;;;0.21;78.89;96552.56;1770162;80;21024;-68
2021/10/29 01:58:55;;;;;;;9.57;4.90;;;;;;;0.20;79.56;96548.19;1773267;80;21039;-66
2021/10/29 02:01:23;;;;;;;8.23;5.03;;;;;;;0.29;79.96;96543.34;1771409;80;21054;-68
2021/10/29 02:03:49;;;;;;;4.40;2.97;;;;;;;0.34;79.30;96543.52;1769361;80;21060;-69
2021/10/29 02:06:17;;;;;;;11.97;5.43;;;;;;;0.33;79.04;96536.56;1774747;80;20995;-69
2021/10/29 02:08:46;;;;;;;5.17;3.77;;;;;;;0.16;79.14;96536.82;1775834;80;21023;-69
2021/10/29 02:11:13;;;;;;;7.13;4.17;;;;;;;0.23;79.03;96535.73;1774160;81;21015;-69
2021/10/29 02:13:40;;;;;;;8.57;4.30;;;;;;;0.32;79.12;96529.16;1771393;80;21102;-68
2021/10/29 02:16:07;;;;;;;6.17;4.10;;;;;;;0.37;79.03;96526.31;1772159;80;21036;-68
2021/10/29 02:18:34;;;;;;;10.10;5.87;;;;;;;0.38;78.93;96529.41;1766178;80;21027;-68
2021/10/29 02:21:01;;;;;;;12.53;6.07;;;;;;;0.34;78.80;96527.52;1778219;81;21078;-68
2021/10/29 02:23:29;;;;;;;8.57;4.33;;;;;;;0.28;79.03;96520.81;1769634;81;21033;-68
2021/10/29 02:25:56;;;;;;;5.70;3.43;;;;;;;0.19;78.59;96521.36;1770498;80;21050;-68
2021/10/29 02:28:24;;;;;;;6.00;4.03;;;;;;;0.18;78.60;96519.60;1771602;81;21077;-69
2021/10/29 02:30:52;;;;;;;7.50;4.03;;;;;;;0.21;78.97;96513.22;1764105;80;21033;-68
2021/10/29 02:33:20;;;;;;;8.13;3.97;;;;;;;0.20;79.21;96520.55;1768114;80;21136;-68
2021/10/29 02:35:47;;;;;;;7.70;3.70;;;;;;;0.14;79.61;96510.34;1763992;80;21053;-68
2021/10/29 02:38:14;;;;;;;5.83;3.90;;;;;;;0.13;79.68;96515.95;1771204;81;21562;-68
2021/10/29 02:40:42;;;;;;;6.60;3.70;;;;;;;0.26;79.90;96512.51;1771269;80;21034;-68
2021/10/29 02:43:09;;;;;;;4.13;3.23;;;;;;;0.34;79.78;96517.55;1772103;80;20984;-69
2021/10/29 02:45:36;;;;;;;6.73;3.90;;;;;;;0.34;79.62;96511.06;1776719;80;21081;-68
2021/10/29 02:48:04;;;;;;;4.47;3.33;;;;;;;0.31;79.25;96515.73;1769214;80;21023;-68
2021/10/29 02:50:31;;;;;;;7.10;4.10;;;;;;;0.31;79.85;96516.16;1773591;81;21030;-67
2021/10/29 02:52:58;;;;;;;6.17;3.27;;;;;;;0.24;80.00;96519.35;1770398;81;21073;-68
2021/10/29 02:55:25;;;;;;;6.03;3.50;;;;;;;0.18;79.23;96523.49;1773169;80;21005;-69
2021/10/29 02:57:52;;;;;;;4.67;3.23;;;;;;;0.11;79.19;96517.61;1777433;81;21023;-68
2021/10/29 03:00:18;;;;;;;7.83;2.77;;;;;;;0.09;79.07;96515.78;1777497;81;21027;-68
2021/10/29 03:02:45;;;;;;;5.40;2.93;;;;;;;0.07;79.26;96523.92;1767143;80;21185;-67
2021/10/29 03:05:13;;;;;;;6.63;4.00;;;;;;;-0.02;79.23;96523.18;1775837;81;21026;-68
2021/10/29 03:07:41;;;;;;;6.07;3.50;;;;;;;0.06;79.79;96515.26;1775412;80;21077;-68
2021/10/29 03:10:11;;;;;;;10.30;4.23;;;;;;;0.14;79.81;96512.52;1774458;81;21011;-68
2021/10/29 03:12:39;;;;;;;6.30;3.87;;;;;;;0.18;80.10;96520.90;1774765;80;21453;-68
2021/10/29 03:15:07;;;;;;;7.23;4.03;;;;;;;0.26;79.84;96520.30;1764286;80;21119;-68
2021/10/29 03:17:35;;;;;;;6.57;3.63;;;;;;;0.31;79.50;96519.63;1777654;81;20999;-68
2021/10/29 03:20:05;;;;;;;12.07;5.00;;;;;;;0.31;79.73;96514.43;1765749;80;20985;-68
2021/10/29 03:22:32;;;;;;;8.67;5.27;;;;;;;0.24;79.31;96520.23;1769075;80;21092;-68
2021/10/29 03:24:58;;;;;;;6.53;4.50;;;;;;;0.18;79.19;96515.70;1775131;79;21019;-68
2021/10/29 03:27:25;;;;;;;11.50;6.40;;;;;;;0.06;78.84;96522.16;1773604;81;21116;-69
2021/10/29 03:29:52;;;;;;;10.03;6.00;;;;;;;-0.08;79.62;96517.33;1765154;80;21098;-68
2021/10/29 03:32:21;;;;;;;9.33;4.30;;;;;;;-0.08;79.63;96514.73;1766717;80;21060;-69
2021/10/29 03:34:47;;;;;;;7.03;3.23;;;;;;;-0.05;80.48;96522.66;1768189;80;21535;-68
2021/10/29 03:37:30;;;;;;;7.07;3.50;;;;;;;-0.08;79.80;96521.22;1770275;80;21130;-67
2021/10/29 03:39:51;;;;;;;6.57;3.60;;;;;;;-0.06;79.92;96521.29;1768619;79;21100;-68
2021/10/29 03:42:20;;;;;;;6.23;3.73;;;;;;;-0.05;80.77;96521.75;1773329;80;21484;-68
2021/10/29 03:47:12;;;;;;;5.87;3.15;;;;;;;0.07;80.92;96522.20;1768095;80;21559;-68
2021/10/29 03:49:46;;;;;;;5.20;3.10;;;;;;;0.00;80.77;96522.83;1764085;80;21480;-68
2021/10/29 03:52:18;;;;;;;4.90;2.90;;;;;;;0.03;80.54;96518.17;1770791;80;20997;-68
2021/10/29 03:54:36;;;;;;;6.50;3.30;;;;;;;0.12;80.70;96512.00;1772494;80;21532;-68
2021/10/29 03:59:30;;;;;;;7.27;4.07;;;;;;;0.28;80.73;96521.20;1772058;81;21027;-68
2021/10/29 04:01:57;;;;;;;6.00;3.70;;;;;;;0.37;80.86;96515.93;1769032;80;21033;-68
2021/10/29 04:04:23;;;;;;;5.77;3.40;;;;;;;0.38;79.75;96520.31;1772014;80;21067;-68
2021/10/29 04:06:50;;;;;;;6.90;4.13;;;;;;;0.27;79.27;96512.55;1775377;80;21133;-68
2021/10/29 04:09:17;;;;;;;7.83;4.13;;;;;;;0.11;79.51;96509.82;1775673;81;21031;-68
2021/10/29 04:11:44;;;;;;;8.27;4.63;;;;;;;0.06;79.57;96506.59;1776404;80;21570;-69
2021/10/29 04:14:11;;;;;;;15.90;7.40;;;;;;;-0.02;79.69;96512.80;1776067;80;21007;-68
2021/10/29 04:16:40;;;;;;;10.87;6.07;;;;;;;-0.08;79.49;96519.05;1766005;80;21009;-69
2021/10/29 04:19:09;;;;;;;3.87;2.93;;;;;;;-0.15;79.99;96515.36;1775892;80;20983;-68
2021/10/29 04:21:37;;;;;;;8.20;3.23;;;;;;;-0.09;80.13;96519.89;1765281;80;21097;-68
2021/10/29 04:24:07;;;;;;;4.43;2.77;;;;;;;-0.02;80.28;96517.57;1765956;80;21059;-68
2021/10/29 04:26:35;;;;;;;4.17;2.97;;;;;;;0.04;80.94;96516.03;1765359;80;21220;-68
2021/10/29 04:29:12;;;;;;;5.40;3.20;;;;;;;-0.04;80.96;96520.52;1774804;80;21044;-67
2021/10/29 04:31:32;;;;;;;6.20;3.53;;;;;;;-0.01;80.80;96518.03;1773559;80;21090;-69
2021/10/29 04:33:58;;;;;;;4.70;2.97;;;;;;;0.08;80.94;96510.14;1772776;80;21463;-68
2021/10/29 04:36:25;;;;;;;7.87;4.93;;;;;;;0.08;80.89;96511.44;1768711;81;21098;-68
2021/10/29 04:38:51;;;;;;;6.97;4.73;;;;;;;0.03;80.20;96520.77;1772308;80;20981;-68
2021/10/29 04:41:18;;;;;;;6.27;3.67;;;;;;;0.01;79.96;96510.73;1769167;80;21033;-68
2021/10/29 04:43:45;;;;;;;3.53;2.20;;;;;;;-0.07;79.81;96519.53;1765129;80;21096;-68
2021/10/29 04:46:11;;;;;;;4.30;2.40;;;;;;;-0.13;80.37;96512.80;1763926;80;21037;-68
2021/10/29 04:48:38;;;;;;;4.43;2.30;;;;;;;-0.15;81.52;96515.75;1764857;81;21025;-68
2021/10/29 04:51:04;;;;;;;26.93;9.80;;;;;;;-0.19;81.09;96517.36;1776120;81;21169;-68
2021/10/29 04:53:31;;;;;;;5.07;2.73;;;;;;;-0.23;80.84;96517.67;1771804;80;21578;-68
2021/10/29 04:55:57;;;;;;;7.23;2.97;;;;;;;-0.18;80.96;96511.75;1765128;80;21045;-68
2021/10/29 04:58:24;;;;;;;3.90;2.70;;;;;;;-0.08;81.00;96512.56;1764045;80;21122;-68
2021/10/29 05:00:51;;;;;;;5.60;3.17;;;;;;;-0.03;80.83;96511.02;1769192;80;21039;-68
2021/10/29 05:03:17;;;;;;;5.77;3.23;;;;;;;-0.07;81.00;96514.34;1766759;80;21027;-68
2021/10/29 05:05:44;;;;;;;4.93;2.90;;;;;;;-0.08;81.42;96506.95;1767544;80;21061;-68
2021/10/29 05:08:10;;;;;;;4.70;3.00;;;;;;;-0.04;81.30;96506.25;1766009;80;21092;-68
2021/10/29 05:10:37;;;;;;;11.40;4.00;;;;;;;-0.06;81.07;96513.50;1775024;80;21026;-67
2021/10/29 05:13:03;;;;;;;8.47;4.43;;;;;;;-0.04;81.07;96506.25;1768228;80;21598;-68
2021/10/29 05:15:30;;;;;;;8.37;4.10;;;;;;;-0.02;80.63;96503.72;1770552;80;21031;-68
2021/10/29 05:17:57;;;;;;;8.57;4.20;;;;;;;-0.15;80.27;96513.16;1776044;81;21034;-67
2021/10/29 05:20:24;;;;;;;26.03;12.47;;;;;;;-0.33;80.31;96518.53;1767196;80;21002;-67
2021/10/29 05:22:51;;;;;;;5.40;3.20;;;;;;;-0.38;80.26;96516.17;1764213;79;21076;-68
2021/10/29 05:25:18;;;;;;;5.27;2.90;;;;;;;-0.29;80.88;96519.13;1774016;81;21046;-67
2021/10/29 05:27:45;;;;;;;5.03;3.33;;;;;;;-0.13;81.11;96515.39;1768107;79;21030;-67
2021/10/29 05:30:12;;;;;;;8.40;5.43;;;;;;;-0.04;81.39;96521.81;1766581;80;20992;-69
2021/10/29 05:32:39;;;;;;;3.07;1.80;;;;;;;0.00;81.09;96521.53;1774746;80;21114;-68
2021/10/29 05:35:08;;;;;;;22.53;9.77;;;;;;;-0.07;80.26;96517.81;1775513;81;21019;-68
2021/10/29 05:37:35;;;;;;;11.70;5.60;;;;;;;-0.10;80.27;96524.58;1768162;80;21495;-69
2021/10/29 05:40:05;;;;;;;108.50;40.10;;;;;;;-0.10;80.88;96529.77;1768544;80;21080;-68
2021/10/29 05:42:33;;;;;;;14.57;5.10;;;;;;;-0.17;80.13;96523.91;1774585;80;21532;-68
2021/10/29 05:45:00;;;;;;;55.33;22.10;;;;;;;-0.17;80.51;96523.49;1779908;81;21496;-68
2021/10/29 05:47:27;;;;;;;38.57;15.27;;;;;;;-0.12;81.53;96523.25;1776988;81;20988;-66
2021/10/29 05:49:55;;;;;;;25.73;13.30;;;;;;;-0.05;81.09;96523.05;1766708;80;21036;-69
2021/10/29 05:52:24;;;;;;;4.93;2.73;;;;;;;-0.09;80.82;96524.66;1768034;80;21047;-68
2021/10/29 05:55:36;;;;;;;17.57;7.47;;;;;;;0.01;81.14;96519.39;1767545;80;21045;-68
2021/10/29 05:57:19;;;;;;;30.13;12.43;;;;;;;0.16;81.62;96525.14;1744946;80;21018;-68
2021/10/29 05:59:45;;;;;;;24.83;11.60;;;;;;;0.30;81.41;96523.45;1771660;80;21003;-69
2021/10/29 06:02:12;;;;;;;17.63;9.60;;;;;;;0.38;80.97;96524.20;1767889;80;21016;-68
2021/10/29 06:04:39;;;;;;;18.37;8.87;;;;;;;0.47;80.97;96525.36;1764178;80;21029;-68
2021/10/29 06:07:05;;;;;;;16.53;9.67;;;;;;;0.55;80.68;96530.39;1764164;80;21120;-69
2021/10/29 06:09:32;;;;;;;14.27;8.17;;;;;;;0.61;80.57;96526.73;1772862;80;21557;-68
2021/10/29 06:11:59;;;;;;;3.47;2.30;;;;;;;0.69;81.04;96529.17;1769211;80;21017;-68
2021/10/29 06:14:27;;;;;;;3.03;1.77;;;;;;;0.68;82.02;96533.91;1771702;80;21070;-68
2021/10/29 06:16:57;;;;;;;11.93;5.80;;;;;;;0.73;81.44;96536.64;1765061;80;21057;-68
2021/10/29 06:19:25;;;;;;;9.07;3.77;;;;;;;0.73;82.21;96536.64;1764420;80;20982;-68
2021/10/29 06:22:09;;;;;;;5.90;3.80;;;;;;;0.84;81.73;96532.29;1770739;80;21009;-68
2021/10/29 06:24:30;;;;;;;4.00;2.60;;;;;;;0.97;81.98;96531.41;1770983;80;21072;-69
2021/10/29 06:27:05;;;;;;;3.80;2.13;;;;;;;1.02;81.13;96528.12;1770660;80;21004;-69
2021/10/29 06:29:29;;;;;;;1.70;1.27;;;;;;;1.10;81.32;96531.39;1773798;80;21633;-69
2021/10/29 06:31:55;;;;;;;4.77;3.17;;;;;;;1.15;81.75;96526.80;1776476;80;21049;-68
2021/10/29 06:34:22;;;;;;;10.20;5.90;;;;;;;1.21;81.40;96527.02;1770657;80;21013;-68
2021/10/29 06:36:49;;;;;;;5.20;2.93;;;;;;;1.33;82.26;96526.94;1771413;81;20987;-68
2021/10/29 06:39:20;;;;;;;6.40;3.50;;;;;;;1.44;82.15;96529.05;1777811;81;21765;-68
2021/10/29 06:41:47;;;;;;;6.27;4.17;;;;;;;1.58;81.80;96528.16;1768368;80;21520;-67
2021/10/29 06:44:41;;;;;;;3.97;2.10;;;;;;;1.71;81.83;96529.42;1774766;80;21090;-68
2021/10/29 06:49:15;;;;;;;6.00;3.90;;;;;;;1.84;81.59;96528.07;1773665;80;21085;-68
2021/10/29 07:00:14;;;;;;;18.30;10.43;;;;;;;2.21;81.60;96531.34;1768107;81;21060;-68
2021/10/29 07:40:43;;;;;;;20.57;12.57;;;;;;;4.60;79.02;96515.33;1774408;81;21025;-67
2021/10/29 07:43:14;;;;;;;24.77;12.23;;;;;;;4.69;78.80;96511.59;1771356;80;21003;-67
2021/10/29 07:45:42;;;;;;;18.17;10.30;;;;;;;4.95;79.34;96510.75;1768282;80;21085;-68
2021/10/29 07:48:08;;;;;;;17.93;11.63;;;;;;;5.23;79.04;96503.81;1765404;80;21129;-69
2021/10/29 07:50:35;;;;;;;18.10;9.90;;;;;;;5.44;78.81;96497.61;1772647;80;21001;-69
2021/10/29 07:53:02;;;;;;;14.83;9.70;;;;;;;5.69;78.86;96499.30;1764253;80;21017;-69
2021/10/29 07:55:30;;;;;;;23.60;10.77;;;;;;;5.92;78.14;96495.70;1770351;80;21460;-68
2021/10/29 07:58:03;;;;;;;17.13;10.57;;;;;;;6.07;76.63;96493.31;1769543;80;21058;-68
2021/10/29 08:00:26;;;;;;;14.77;9.13;;;;;;;6.24;77.01;96490.48;1774775;81;21047;-69
2021/10/29 08:02:54;;;;;;;11.57;7.50;;;;;;;6.44;77.07;96492.48;1775438;80;20984;-68
2021/10/29 08:05:21;;;;;;;8.60;5.70;;;;;;;6.66;76.68;96486.63;1772750;80;21113;-69
2021/10/29 08:07:49;;;;;;;7.17;4.70;;;;;;;6.92;76.61;96493.88;1771971;81;21476;-68
2021/10/29 08:10:17;;;;;;;8.97;4.40;;;;;;;7.20;76.01;96481.89;1765665;80;21009;-68
2021/10/29 08:12:44;;;;;;;14.80;7.60;;;;;;;7.48;74.62;96485.61;1770492;80;21072;-68
2021/10/29 08:15:11;;;;;;;9.87;6.00;;;;;;;7.69;71.37;96477.47;1774400;81;21036;-69
2021/10/29 08:17:41;;;;;;;15.03;8.43;;;;;;;7.89;70.23;96480.23;1765586;80;21007;-66
2021/10/29 08:20:13;;;;;;;12.80;7.63;;;;;;;8.14;70.52;96478.18;1772366;80;21497;-66
2021/10/29 08:22:41;;;;;;;10.40;5.87;;;;;;;8.38;69.63;96481.78;1769741;80;21605;-66
2021/10/29 08:25:11;;;;;;;9.50;5.73;;;;;;;8.53;69.08;96484.50;1773059;79;21038;-66
2021/10/29 08:27:38;;;;;;;7.37;4.93;;;;;;;8.71;69.70;96482.36;1766935;80;21519;-66
2021/10/29 08:30:08;;;;;;;10.23;5.57;;;;;;;8.97;68.90;96483.77;1769876;80;21020;-66
2021/10/29 08:32:39;;;;;;;13.00;5.60;;;;;;;9.23;67.91;96472.38;1757714;81;21053;-66
2021/10/29 08:35:08;;;;;;;13.07;7.87;;;;;;;9.40;67.72;96471.95;1770773;80;21060;-66
2021/10/29 08:37:36;;;;;;;9.70;5.73;;;;;;;9.56;67.35;96463.59;1769319;80;21034;-66
2021/10/29 08:40:06;;;;;;;11.70;6.47;;;;;;;9.84;66.63;96456.98;1768068;80;21508;-67
2021/10/29 08:42:34;;;;;;;13.73;5.33;;;;;;;10.11;64.82;96469.22;1771277;80;21034;-67
2021/10/29 08:45:04;;;;;;;7.63;4.57;;;;;;;10.31;63.52;96459.52;1775434;80;21079;-66
2021/10/29 08:47:39;;;;;;;9.10;4.73;;;;;;;10.49;64.01;96451.97;1770556;80;21018;-66
2021/10/29 08:50:10;;;;;;;9.23;5.20;;;;;;;10.75;63.90;96451.82;1766830;80;21081;-65
2021/10/29 08:52:39;;;;;;;9.77;3.50;;;;;;;10.96;60.01;96449.94;1774750;80;20988;-66
2021/10/29 08:55:08;;;;;;;9.30;6.07;;;;;;;11.19;57.66;96444.08;1777934;81;21073;-66
2021/10/29 08:57:37;;;;;;;8.27;5.70;;;;;;;11.44;59.30;96443.44;1768244;80;21078;-66
2021/10/29 09:00:09;;;;;;;15.77;9.90;;;;;;;11.63;57.05;96437.98;1775698;81;21101;-65
2021/10/29 09:02:43;;;;;;;14.60;8.97;;;;;;;11.83;57.40;96437.79;1767191;80;21056;-66
2021/10/29 09:05:23;;;;;;;9.70;5.70;;;;;;;12.02;57.02;96433.20;1777491;80;21015;-66
2021/10/29 09:07:57;;;;;;;10.87;7.87;;;;;;;12.18;55.02;96430.84;1739437;80;20980;-66
2021/10/29 09:10:36;;;;;;;11.03;6.37;;;;;;;12.29;52.37;96430.25;1754790;81;21070;-66
2021/10/29 09:33:00;;;;;;;7.15;3.42;;;;;;;13.75;51.34;96412.67;1769070;80;21084;-67
2021/10/29 09:35:30;;;;;;;4.62;2.83;;;;;;;13.91;47.79;96404.88;1774537;81;20988;-66
2021/10/29 09:38:04;;;;;;;9.55;3.47;;;;;;;14.00;48.34;96407.79;1774354;81;21015;-66
2021/10/29 09:41:02;;;;;;;4.67;2.30;;;;;;;14.15;47.73;96405.30;1770432;81;21023;-66
2021/10/29 09:43:33;;;;;;;6.28;2.80;;;;;;;14.32;47.99;96404.51;1779293;80;21520;-66
2021/10/29 09:46:06;;;;;;;6.90;4.78;;;;;;;14.42;45.71;96399.43;1774572;81;21439;-66
2021/10/29 09:48:43;;;;;;;9.00;4.97;;;;;;;14.52;46.04;96390.82;1773407;81;21099;-65
2021/10/29 09:51:10;;;;;;;5.70;3.20;;;;;;;14.63;45.59;96394.14;1771193;79;21513;-66
2021/10/29 09:56:43;;;;;;;4.80;3.20;;;;;;;14.92;46.09;96400.61;1770341;80;21043;-67
2021/10/29 09:58:54;;;;;;;5.45;3.58;;;;;;;15.05;45.65;96392.77;1764557;80;21169;-66
2021/10/29 10:01:23;;;;;;;8.23;3.98;;;;;;;15.23;45.20;96393.23;1766924;80;21121;-67
2021/10/29 10:03:50;;;;;;;6.72;4.35;;;;;;;15.57;45.62;96389.27;1767714;80;21018;-67
2021/10/29 10:06:25;;;;;;;7.50;3.90;;;;;;;15.98;42.23;96382.91;1774160;81;21518;-67
2021/10/29 10:08:57;;;;;;;11.78;3.98;;;;;;;16.41;43.12;96395.02;1778864;81;21059;-66
2021/10/29 10:11:28;;;;;;;10.55;3.47;;;;;;;16.90;41.30;96378.52;1765294;80;21061;-67
2021/10/29 10:13:57;;;;;;;6.85;3.90;;;;;;;17.32;41.94;96372.75;1767998;79;21020;-67
2021/10/29 10:16:31;;;;;;;6.50;3.65;;;;;;;17.62;37.29;96369.05;1772100;80;20975;-67
2021/10/29 10:18:56;;;;;;;6.37;2.90;;;;;;;18.02;40.63;96371.71;1772693;80;21153;-67
2021/10/29 10:21:26;;;;;;;5.05;3.20;;;;;;;18.48;38.66;96364.68;1777115;81;21161;-67
2021/10/29 10:23:56;;;;;;;4.40;3.10;;;;;;;18.81;37.06;96369.70;1765752;80;21497;-66
2021/10/29 10:40:37;;;;;;;8.03;5.97;;;;;;;20.50;31.46;96350.56;1776682;81;21019;-66
2021/10/29 10:45:51;;;;;;;10.18;7.40;;;;;;;21.28;31.22;96352.73;1776047;80;21862;-67
2021/10/29 10:48:31;;;;;;;9.30;6.67;;;;;;;21.58;30.63;96352.59;1779632;80;21015;-66
2021/10/29 10:51:41;;;;;;;11.25;7.37;;;;;;;21.34;29.16;96346.60;1777992;81;21022;-66
2021/10/29 10:59:59;;;;;;;10.68;5.60;;;;;;;22.15;28.17;96347.45;1775764;80;21035;-66
2021/10/29 11:02:53;;;;;;;9.43;5.78;;;;;;;22.40;28.21;96340.33;1773811;80;21200;-67
2021/10/29 11:11:04;;;;;;;8.10;5.55;;;;;;;22.78;26.27;96338.27;1769590;80;21077;-68
2021/10/29 11:13:56;;;;;;;6.78;5.35;;;;;;;22.79;28.18;96342.69;1770472;81;21043;-68
2021/10/29 11:16:35;;;;;;;4.85;4.05;;;;;;;22.91;27.31;96333.08;1774263;80;21014;-68
2021/10/29 11:19:21;;;;;;;6.12;4.90;;;;;;;23.02;27.42;96329.80;1777254;80;21129;-68
2021/10/29 11:21:55;;;;;;;7.42;4.95;;;;;;;23.40;26.73;96331.65;1771706;80;21068;-68
2021/10/29 11:24:36;;;;;;;6.53;4.83;;;;;;;23.93;27.03;96324.95;1764993;80;21013;-67
2021/10/29 11:27:16;;;;;;;8.78;5.35;;;;;;;23.86;24.61;96324.06;1779623;80;21047;-67
2021/10/29 11:29:52;;;;;;;6.97;4.87;;;;;;;24.16;25.69;96318.16;1764111;80;20982;-68
2021/10/29 11:32:25;;;;;;;5.83;4.70;;;;;;;24.47;23.64;96312.28;1776447;81;21046;-66
2021/10/29 11:35:01;;;;;;;6.58;4.47;;;;;;;24.67;23.58;96309.68;1779948;81;20991;-67
2021/10/29 11:37:36;;;;;;;5.67;4.35;;;;;;;24.76;23.74;96314.47;1766583;80;21089;-68
2021/10/29 11:40:02;;;;;;;5.30;4.30;;;;;;;25.11;24.44;96311.34;1776543;80;21027;-68
2021/10/29 11:42:28;;;;;;;5.53;4.00;;;;;;;25.11;22.24;96307.78;1767467;80;21094;-68
2021/10/29 11:45:02;;;;;;;6.70;5.08;;;;;;;25.05;23.02;96310.41;1772907;79;21583;-69
2021/10/29 11:47:29;;;;;;;9.38;6.05;;;;;;;25.20;23.64;96312.13;1769227;80;21205;-68
2021/10/29 11:50:12;;;;;;;7.40;5.05;;;;;;;25.32;23.28;96304.17;1778840;80;21070;-68
2021/10/29 11:52:43;;;;;;;5.70;4.55;;;;;;;25.61;22.89;96300.41;1764507;80;21089;-69
2021/10/29 11:55:21;;;;;;;5.20;4.37;;;;;;;25.85;22.50;96302.44;1766017;80;21036;-66
2021/10/29 11:57:55;;;;;;;7.17;4.40;;;;;;;26.12;21.66;96298.33;1772810;80;21110;-68
2021/10/29 12:00:22;;;;;;;8.25;4.45;;;;;;;26.39;21.90;96295.53;1772426;80;21022;-68
2021/10/29 12:08:26;;;;;;;6.80;5.10;;;;;;;26.16;20.94;96290.85;1778820;81;21018;-67
2021/10/29 12:11:06;;;;;;;7.58;5.30;;;;;;;26.44;22.34;96283.05;1770897;80;21102;-67
2021/10/29 12:13:40;;;;;;;6.67;5.00;;;;;;;26.59;20.53;96286.53;1776671;81;21027;-67
2021/10/29 12:16:18;;;;;;;6.97;6.00;;;;;;;26.83;20.53;96285.23;1766895;80;21088;-68
2021/10/29 12:18:55;;;;;;;7.35;6.42;;;;;;;27.11;20.92;96286.29;1773421;81;21493;-68
2021/10/29 12:21:21;;;;;;;8.05;7.25;;;;;;;27.12;21.29;96283.12;1770535;80;21070;-68
2021/10/29 12:23:51;;;;;;;12.33;6.78;;;;;;;27.01;20.32;96283.88;1764425;80;21107;-68
2021/10/29 12:26:28;;;;;;;11.25;7.72;;;;;;;27.04;20.52;96279.63;1767766;80;21063;-68
2021/10/29 12:28:55;;;;;;;12.35;10.75;;;;;;;27.22;21.35;96276.56;1764592;80;21544;-68
2021/10/29 12:31:53;;;;;;;9.98;8.45;;;;;;;26.86;20.92;96276.88;1764819;80;21505;-69
2021/10/29 12:34:46;;;;;;;10.25;8.23;;;;;;;27.03;20.79;96273.80;1767725;80;20994;-68
2021/10/29 12:37:18;;;;;;;9.35;7.55;;;;;;;27.33;20.70;96272.05;1755765;80;21047;-67
2021/10/29 13:01:29;;;;;;;14.47;9.85;;;;;;;26.49;22.50;96256.02;1764304;80;21507;-69
2021/10/29 13:04:15;;;;;;;9.97;7.50;;;;;;;26.41;23.08;96255.71;1765730;80;21015;-69
2021/10/29 13:06:52;;;;;;;13.75;10.53;;;;;;;26.13;24.17;96259.48;1772504;80;21511;-68
2021/10/29 13:09:25;;;;;;;10.30;8.50;;;;;;;25.75;24.38;96256.20;1770222;80;21090;-68
2021/10/29 13:11:56;;;;;;;;;;;;;;;25.62;25.56;96262.08;1774691;80;21544;-68
2021/10/29 13:14:38;;;;;;;9.48;7.78;;;;;;;25.32;24.69;96261.81;1769391;80;20103;-68
2021/10/29 13:17:07;;;;;;;20.55;13.58;;;;;;;24.87;26.49;96265.68;1770298;80;20988;-68
2021/10/29 13:55:14;;;;;;;19.50;11.03;;;;;;;17.55;37.85;96282.13;1764269;80;21025;-67
2021/10/29 13:57:51;;;;;;;18.17;10.43;;;;;;;16.42;40.78;96280.89;1767346;80;20998;-68
2021/10/29 14:02:58;;;;;;;19.45;9.85;;;;;;;15.56;44.08;96289.12;1766558;81;21007;-67
2021/10/29 14:24:28;;;;;;;16.77;8.70;;;;;;;13.45;46.38;96283.72;1770504;80;21740;-68
2021/10/29 14:29:51;;;;;;;12.73;8.60;;;;;;;13.28;46.89;96279.18;1773243;79;21018;-68
2021/10/29 14:32:20;;;;;;;11.88;7.65;;;;;;;13.11;46.47;96278.15;1774900;80;21003;-69
2021/10/29 14:35:02;;;;;;;18.45;9.58;;;;;;;12.71;50.60;96292.05;1772132;80;21037;-68
2021/10/29 14:37:26;;;;;;;13.05;7.42;;;;;;;12.43;50.93;96287.17;1759991;80;21545;-68
2021/10/29 14:40:11;;;;;;;13.08;7.85;;;;;;;12.24;49.85;96292.30;1765806;80;21041;-68
2021/10/29 14:42:40;;;;;;;12.03;8.03;;;;;;;11.94;51.11;96293.12;1764441;79;21019;-68
2021/10/29 14:45:11;;;;;;;13.08;8.05;;;;;;;11.69;50.80;96300.44;1769896;80;21006;-68
2021/10/29 15:01:08;;;;;;;12.80;8.23;;;;;;;10.54;55.98;96294.50;1775496;81;21495;-68
2021/10/29 15:17:24;;;;;;;12.40;8.30;;;;;;;9.34;60.79;96293.29;1774511;80;21000;-68
2021/10/29 15:27:44;;;;;;;14.47;9.23;;;;;;;8.77;61.71;96292.05;1766583;80;21014;-68
2021/10/29 15:30:10;;;;;;;12.23;7.73;;;;;;;8.55;63.83;96290.75;1774540;81;21047;-68
2021/10/29 15:45:50;;;;;;;15.53;8.90;;;;;;;7.97;65.29;96298.51;1771010;80;21078;-67